createdAt,value
2023-01-23T00:01:26.422Z,29.17
2023-01-23T00:03:54.795Z,29.27
2023-01-23T00:06:21.917Z,26.63
2023-01-23T00:08:48.818Z,26.83
2023-01-23T00:11:20.616Z,28.73
2023-01-23T00:13:47.535Z,27.37
2023-01-23T00:16:18.445Z,26.13
2023-01-23T00:18:46.086Z,31.80
2023-01-23T00:21:17.100Z,26.10
2023-01-23T00:23:47.035Z,24.47
2023-01-23T00:26:18.283Z,26.63
2023-01-23T00:28:46.291Z,29.47
2023-01-23T00:31:29.573Z,25.93
2023-01-23T00:34:01.678Z,25.97
2023-01-23T00:36:32.851Z,27.23
2023-01-23T00:38:59.995Z,28.53
2023-01-23T00:41:27.363Z,27.73
2023-01-23T00:43:54.711Z,25.87
2023-01-23T00:46:22.511Z,28.27
2023-01-23T00:48:50.237Z,28.23
2023-01-23T00:51:17.535Z,30.37
2023-01-23T00:53:45.267Z,30.60
2023-01-23T00:56:12.273Z,29.47
2023-01-23T00:58:40.463Z,30.67
2023-01-23T01:01:08.012Z,35.37
2023-01-23T01:03:35.570Z,37.50
2023-01-23T01:06:02.890Z,34.57
2023-01-23T01:08:29.754Z,40.60
2023-01-23T01:10:56.595Z,37.83
2023-01-23T01:13:27.406Z,39.33
2023-01-23T01:15:54.969Z,36.83
2023-01-23T01:18:22.942Z,39.03
2023-01-23T01:20:51.315Z,34.10
2023-01-23T01:23:19.011Z,26.80
2023-01-23T01:25:46.168Z,27.37
2023-01-23T01:28:13.741Z,28.53
2023-01-23T01:30:41.281Z,27.93
2023-01-23T01:33:08.352Z,27.87
2023-01-23T01:35:35.218Z,26.77
2023-01-23T01:38:02.044Z,32.60
2023-01-23T01:40:33.970Z,37.73
2023-01-23T01:43:06.898Z,35.30
2023-01-23T01:46:05.770Z,32.73
2023-01-23T01:49:05.419Z,38.47
2023-01-23T01:51:52.716Z,34.23
2023-01-23T01:54:53.077Z,35.57
2023-01-23T01:57:36.941Z,36.27
2023-01-23T02:00:15.628Z,39.93
2023-01-23T02:02:47.035Z,37.20
2023-01-23T02:05:22.748Z,33.53
2023-01-23T02:08:04.699Z,34.13
2023-01-23T02:10:36.277Z,34.67
2023-01-23T02:13:38.647Z,36.83
2023-01-23T02:16:17.999Z,37.23
2023-01-23T02:18:49.034Z,36.90
2023-01-23T02:21:22.628Z,46.53
2023-01-23T02:23:56.709Z,45.40
2023-01-23T02:26:32.985Z,44.23
2023-01-23T02:29:00.009Z,38.83
2023-01-23T02:31:27.331Z,55.70
2023-01-23T02:33:59.624Z,51.13
2023-01-23T02:36:30.277Z,45.30
2023-01-23T02:39:18.288Z,45.77
2023-01-23T02:41:48.587Z,47.87
2023-01-23T02:44:33.793Z,45.83
2023-01-23T02:47:12.425Z,44.70
2023-01-23T02:49:40.419Z,49.33
2023-01-23T02:52:07.761Z,63.33
2023-01-23T02:54:34.605Z,47.47
2023-01-23T02:57:01.763Z,47.20
2023-01-23T02:59:46.991Z,50.73
2023-01-23T03:02:14.550Z,104.37
2023-01-23T03:04:41.848Z,53.43
2023-01-23T03:07:08.671Z,48.17
2023-01-23T03:09:35.697Z,48.70
2023-01-23T03:12:02.933Z,48.60
2023-01-23T03:14:32.316Z,50.43
2023-01-23T03:16:59.169Z,45.40
2023-01-23T03:19:27.084Z,46.07
2023-01-23T03:21:54.797Z,51.53
2023-01-23T03:24:21.927Z,47.13
2023-01-23T03:26:50.871Z,49.97
2023-01-23T03:29:40.392Z,50.47
2023-01-23T03:32:08.536Z,48.37
2023-01-23T03:34:35.739Z,53.33
2023-01-23T03:37:03.360Z,54.17
2023-01-23T03:39:49.238Z,50.47
2023-01-23T03:42:16.066Z,53.47
2023-01-23T03:44:43.315Z,56.87
2023-01-23T03:47:10.666Z,57.17
2023-01-23T03:49:37.513Z,52.17
2023-01-23T03:52:04.557Z,56.23
2023-01-23T03:54:31.415Z,47.03
2023-01-23T03:56:58.396Z,53.67
2023-01-23T03:59:25.199Z,50.00
2023-01-23T04:01:52.342Z,48.33
2023-01-23T04:04:19.195Z,47.17
2023-01-23T04:06:46.026Z,49.03
2023-01-23T04:09:13.115Z,49.57
2023-01-23T04:11:40.046Z,46.40
2023-01-23T04:14:07.044Z,46.77
2023-01-23T04:16:33.963Z,50.67
2023-01-23T04:19:00.839Z,46.60
2023-01-23T04:21:27.748Z,46.33
2023-01-23T04:23:54.546Z,53.07
2023-01-23T04:26:21.436Z,46.60
2023-01-23T04:28:48.236Z,43.90
2023-01-23T04:31:15.114Z,42.03
2023-01-23T04:33:42.091Z,43.20
2023-01-23T04:36:10.187Z,40.00
2023-01-23T04:38:37.151Z,40.57
2023-01-23T04:41:04.601Z,39.37
2023-01-23T04:43:31.824Z,43.40
2023-01-23T04:45:58.841Z,40.77
2023-01-23T04:48:26.275Z,41.27
2023-01-23T04:50:53.322Z,40.53
2023-01-23T04:53:20.323Z,41.33
2023-01-23T04:55:49.246Z,39.67
2023-01-23T04:58:18.653Z,40.20
2023-01-23T05:00:46.280Z,37.30
2023-01-23T05:03:14.263Z,38.43
2023-01-23T05:05:42.723Z,37.90
2023-01-23T05:08:10.904Z,39.87
2023-01-23T05:10:38.700Z,39.40
2023-01-23T05:13:05.686Z,36.63
2023-01-23T05:15:32.727Z,38.63
2023-01-23T05:17:59.672Z,35.93
2023-01-23T05:20:26.557Z,35.30
2023-01-23T05:22:53.533Z,37.10
2023-01-23T05:25:23.325Z,38.10
2023-01-23T05:27:50.341Z,38.83
2023-01-23T05:30:18.596Z,38.83
2023-01-23T05:32:45.844Z,37.13
2023-01-23T05:35:12.712Z,39.13
2023-01-23T05:37:39.683Z,38.20
2023-01-23T05:40:09.208Z,36.87
2023-01-23T05:42:36.082Z,37.13
2023-01-23T05:45:03.030Z,38.80
2023-01-23T05:47:30.125Z,39.73
2023-01-23T05:49:56.951Z,39.73
2023-01-23T05:52:24.003Z,39.40
2023-01-23T05:54:50.800Z,37.10
2023-01-23T05:57:17.731Z,40.30
2023-01-23T05:59:44.706Z,36.87
2023-01-23T06:02:11.903Z,38.53
2023-01-23T06:04:38.882Z,32.80
2023-01-23T06:07:08.287Z,31.00
2023-01-23T06:09:35.141Z,27.60
2023-01-23T06:12:02.017Z,29.60
2023-01-23T06:14:28.918Z,27.60
2023-01-23T06:16:55.714Z,30.23
2023-01-23T06:19:22.731Z,31.90
2023-01-23T06:21:49.584Z,29.37
2023-01-23T06:24:16.462Z,28.20
2023-01-23T06:26:43.365Z,27.30
2023-01-23T06:29:10.148Z,30.47
2023-01-23T06:31:37.165Z,26.97
2023-01-23T06:34:04.723Z,29.50
2023-01-23T06:36:31.707Z,29.80
2023-01-23T06:38:58.554Z,25.23
2023-01-23T06:41:25.546Z,30.60
2023-01-23T06:43:53.663Z,31.17
2023-01-23T06:46:21.482Z,27.73
2023-01-23T06:48:48.449Z,24.87
2023-01-23T06:51:15.337Z,24.37
2023-01-23T06:53:42.230Z,26.67
2023-01-23T06:56:14.132Z,27.27
2023-01-23T06:58:45.608Z,28.37
2023-01-23T07:01:16.303Z,28.30
2023-01-23T07:03:44.877Z,27.80
2023-01-23T07:06:13.473Z,28.53
2023-01-23T07:08:41.448Z,30.23
2023-01-23T07:11:09.216Z,29.27
2023-01-23T07:13:36.144Z,28.80
2023-01-23T07:16:03.405Z,29.37
2023-01-23T07:18:30.435Z,30.63
2023-01-23T07:20:57.504Z,30.27
2023-01-23T07:23:24.362Z,27.53
2023-01-23T07:25:51.331Z,28.97
2023-01-23T07:28:18.126Z,30.03
2023-01-23T07:30:45.066Z,31.40
2023-01-23T07:33:12.463Z,27.00
2023-01-23T07:35:40.632Z,28.37
2023-01-23T07:38:07.493Z,28.27
2023-01-23T07:40:34.411Z,27.77
2023-01-23T07:43:01.207Z,27.93
2023-01-23T07:45:28.033Z,29.13
2023-01-23T07:47:55.748Z,26.93
2023-01-23T07:50:22.818Z,28.87
2023-01-23T07:52:49.755Z,27.67
2023-01-23T07:55:16.709Z,28.03
2023-01-23T07:57:43.598Z,28.30
2023-01-23T08:00:11.145Z,26.97
2023-01-23T08:02:38.478Z,27.90
2023-01-23T08:05:06.086Z,27.03
2023-01-23T08:07:33.274Z,25.10
2023-01-23T08:10:00.139Z,27.83
2023-01-23T08:12:26.955Z,24.97
2023-01-23T08:14:53.785Z,26.87
2023-01-23T08:17:21.139Z,26.33
2023-01-23T08:19:49.179Z,26.37
2023-01-23T08:22:16.015Z,27.03
2023-01-23T08:24:42.836Z,28.17
2023-01-23T08:27:09.665Z,27.23
2023-01-23T08:29:36.524Z,26.43
2023-01-23T08:32:03.604Z,25.53
2023-01-23T08:34:30.492Z,26.23
2023-01-23T08:36:57.383Z,26.63
2023-01-23T08:39:24.512Z,24.57
2023-01-23T08:41:51.762Z,26.67
2023-01-23T08:44:18.589Z,24.23
2023-01-23T08:46:46.502Z,27.20
2023-01-23T08:49:13.767Z,25.00
2023-01-23T08:51:40.589Z,26.87
2023-01-23T08:54:07.460Z,25.80
2023-01-23T08:56:34.349Z,24.43
2023-01-23T08:59:01.172Z,22.40
2023-01-23T09:01:28.521Z,24.27
2023-01-23T09:03:56.702Z,23.23
2023-01-23T09:06:23.641Z,23.83
2023-01-23T09:08:50.633Z,24.30
2023-01-23T09:11:18.737Z,22.90
2023-01-23T09:13:47.366Z,21.87
2023-01-23T09:16:14.379Z,22.67
2023-01-23T09:18:41.310Z,23.93
2023-01-23T09:21:14.420Z,22.57
2023-01-23T09:23:41.306Z,22.53
2023-01-23T09:26:12.082Z,22.53
2023-01-23T09:28:42.043Z,21.20
2023-01-23T09:31:12.971Z,18.60
2023-01-23T09:33:41.214Z,22.10
2023-01-23T09:36:09.418Z,22.13
2023-01-23T09:38:36.719Z,21.70
2023-01-23T09:41:30.101Z,26.10
2023-01-23T09:44:09.318Z,21.27
2023-01-23T09:46:43.417Z,26.67
2023-01-23T09:49:33.955Z,25.73
2023-01-23T09:52:07.992Z,20.43
2023-01-23T09:55:02.153Z,23.40
2023-01-23T09:57:37.073Z,20.50
2023-01-23T10:00:14.843Z,20.87
2023-01-23T10:02:45.468Z,21.80
2023-01-23T10:05:18.086Z,23.83
2023-01-23T10:08:28.679Z,21.70
2023-01-23T10:11:27.140Z,20.33
2023-01-23T10:14:26.016Z,23.13
2023-01-23T10:17:04.707Z,21.47
2023-01-23T10:20:22.422Z,22.40
2023-01-23T10:23:18.737Z,19.23
2023-01-23T10:25:46.792Z,20.13
2023-01-23T10:28:39.298Z,24.20
2023-01-23T10:31:20.989Z,22.83
2023-01-23T10:34:14.581Z,20.33
2023-01-23T10:37:07.484Z,18.90
2023-01-23T10:39:53.428Z,20.47
2023-01-23T10:42:23.755Z,18.43
2023-01-23T10:44:51.299Z,20.17
2023-01-23T10:47:54.553Z,21.00
2023-01-23T10:50:40.653Z,22.40
2023-01-23T10:53:19.677Z,20.70
2023-01-23T10:55:48.112Z,19.10
2023-01-23T10:58:39.731Z,22.83
2023-01-23T11:01:26.714Z,21.90
2023-01-23T11:03:53.817Z,21.23
2023-01-23T11:06:25.984Z,19.73
2023-01-23T11:09:02.001Z,21.63
2023-01-23T11:11:31.831Z,22.83
2023-01-23T11:14:28.027Z,23.20
2023-01-23T11:17:25.130Z,23.20
2023-01-23T11:19:54.469Z,20.10
2023-01-23T11:22:30.768Z,28.43
2023-01-23T11:24:58.967Z,23.80
2023-01-23T11:27:31.073Z,25.47
2023-01-23T11:30:17.538Z,22.97
2023-01-23T11:32:59.239Z,27.57
2023-01-23T11:36:02.755Z,25.07
2023-01-23T11:38:52.490Z,23.20
2023-01-23T11:41:24.499Z,24.33
2023-01-23T11:43:52.777Z,23.30
2023-01-23T11:46:34.411Z,21.37
2023-01-23T11:49:24.677Z,23.87
2023-01-23T11:52:17.814Z,22.57
2023-01-23T11:55:07.982Z,21.90
2023-01-23T11:58:18.172Z,22.63
2023-01-23T12:00:49.802Z,26.27
2023-01-23T12:04:13.293Z,24.73
2023-01-23T12:06:52.536Z,22.37
2023-01-23T12:09:21.669Z,22.60
2023-01-23T12:12:22.285Z,21.97
2023-01-23T12:15:24.410Z,19.87
2023-01-23T12:18:16.183Z,23.33
2023-01-23T12:21:02.933Z,21.00
2023-01-23T12:24:03.109Z,20.30
2023-01-23T12:26:31.858Z,23.07
2023-01-23T12:29:35.539Z,19.70
2023-01-23T12:32:33.194Z,19.50
2023-01-23T12:35:14.948Z,21.17
2023-01-23T12:38:11.675Z,21.43
2023-01-23T12:40:56.252Z,20.27
2023-01-23T12:43:45.574Z,22.93
2023-01-23T12:46:45.130Z,20.70
2023-01-23T12:49:34.747Z,21.27
2023-01-23T12:52:29.109Z,25.13
2023-01-23T12:55:21.870Z,22.67
2023-01-23T12:58:07.804Z,22.13
2023-01-23T13:00:46.875Z,19.47
2023-01-23T13:03:47.433Z,22.77
2023-01-23T13:06:28.884Z,20.60
2023-01-23T13:09:39.837Z,23.17
2023-01-23T13:12:25.590Z,23.80
2023-01-23T13:15:15.482Z,21.40
2023-01-23T13:18:13.300Z,22.63
2023-01-23T13:21:15.715Z,21.67
2023-01-23T13:23:42.651Z,21.63
2023-01-23T13:26:15.735Z,22.90
2023-01-23T13:28:59.230Z,22.97
2023-01-23T13:31:46.685Z,22.77
2023-01-23T13:34:16.902Z,23.57
2023-01-23T13:36:49.445Z,21.67
2023-01-23T13:39:27.986Z,22.67
2023-01-23T13:42:15.783Z,24.20
2023-01-23T13:45:16.554Z,23.33
2023-01-23T14:22:44.200Z,23.60
2023-01-23T14:25:18.404Z,22.47
2023-01-23T14:27:53.366Z,24.20
2023-01-23T14:30:26.648Z,25.20
2023-01-23T14:32:54.289Z,23.00
2023-01-23T14:35:33.056Z,29.40
2023-01-23T14:38:05.031Z,34.63
2023-01-23T14:40:43.477Z,27.77
2023-01-23T14:43:26.862Z,24.93
2023-01-23T14:46:20.409Z,24.90
2023-01-23T14:48:54.572Z,24.70
2023-01-23T14:51:25.617Z,54.23
2023-01-23T14:54:20.434Z,62.83
2023-01-23T14:56:50.172Z,41.20
2023-01-23T14:59:36.024Z,33.77
2023-01-23T15:02:31.415Z,71.83
2023-01-23T15:05:27.062Z,58.00
2023-01-23T15:08:05.959Z,36.37
2023-01-23T15:10:35.758Z,35.67
2023-01-23T15:13:11.351Z,26.47
2023-01-23T15:15:44.660Z,29.97
2023-01-23T15:18:24.812Z,30.07
2023-01-23T15:21:04.653Z,30.70
2023-01-23T15:23:39.190Z,31.57
2023-01-23T15:26:14.707Z,27.63
2023-01-23T15:28:56.395Z,26.90
2023-01-23T15:31:28.407Z,27.83
2023-01-23T15:34:10.032Z,25.17
2023-01-23T15:36:36.999Z,26.77
2023-01-23T15:39:03.937Z,28.17
2023-01-23T15:41:53.538Z,27.93
2023-01-23T15:44:23.083Z,25.03
2023-01-23T15:46:50.182Z,27.20
2023-01-23T15:49:25.434Z,24.77
2023-01-23T15:51:59.589Z,26.47
2023-01-23T15:54:36.318Z,26.27
2023-01-23T15:57:08.766Z,25.10
2023-01-23T15:59:37.039Z,28.17
2023-01-23T16:02:06.445Z,24.03
2023-01-23T16:04:35.275Z,25.30
2023-01-23T16:07:07.412Z,28.27
2023-01-23T16:09:38.064Z,24.83
2023-01-23T16:12:05.465Z,25.47
2023-01-23T16:14:32.451Z,26.43
2023-01-23T16:17:11.514Z,28.50
2023-01-23T16:19:43.120Z,27.33
2023-01-23T16:22:25.154Z,26.57
2023-01-23T16:24:52.578Z,26.37
2023-01-23T16:27:27.117Z,25.93
2023-01-23T16:29:55.779Z,26.17
2023-01-23T16:32:22.893Z,25.03
2023-01-23T16:34:50.009Z,25.83
2023-01-23T16:37:19.143Z,26.33
2023-01-23T16:39:47.800Z,26.77
2023-01-23T16:42:24.927Z,26.60
2023-01-23T16:44:51.883Z,29.43
2023-01-23T16:47:18.952Z,30.50
2023-01-23T16:49:54.202Z,24.20
2023-01-23T16:52:25.080Z,25.40
2023-01-23T16:54:53.291Z,22.23
2023-01-23T16:57:21.235Z,26.50
2023-01-23T16:59:48.863Z,24.70
2023-01-23T17:02:25.972Z,24.03
2023-01-23T17:04:52.879Z,24.37
2023-01-23T17:07:20.364Z,26.00
2023-01-23T17:09:49.065Z,24.73
2023-01-23T17:12:27.760Z,27.13
2023-01-23T17:14:55.365Z,24.80
2023-01-23T17:17:35.675Z,25.90
2023-01-23T17:20:05.446Z,25.93
2023-01-23T17:22:39.159Z,26.93
2023-01-23T17:25:18.132Z,24.30
2023-01-23T17:27:51.907Z,27.07
2023-01-23T17:30:25.563Z,27.70
2023-01-23T17:32:55.726Z,25.13
2023-01-23T17:35:45.099Z,23.77
2023-01-23T17:38:21.684Z,27.17
2023-01-23T17:40:49.485Z,25.60
2023-01-23T17:43:18.637Z,29.03
2023-01-23T17:45:50.136Z,25.87
2023-01-23T17:48:28.349Z,41.50
2023-01-23T17:50:55.837Z,43.10
2023-01-23T17:53:23.996Z,36.53
2023-01-23T17:55:52.719Z,32.20
2023-01-23T17:58:20.601Z,31.63
2023-01-23T18:00:52.232Z,28.67
2023-01-23T18:03:24.705Z,27.37
2023-01-23T18:05:52.021Z,28.30
2023-01-23T18:08:23.990Z,31.30
2023-01-23T18:10:56.607Z,34.93
2023-01-23T18:13:47.378Z,27.07
2023-01-23T18:16:42.481Z,28.57
2023-01-23T18:19:21.324Z,29.47
2023-01-23T18:21:54.750Z,26.40
2023-01-23T18:24:30.036Z,24.33
2023-01-23T18:27:21.806Z,28.63
2023-01-23T18:30:00.415Z,26.37
2023-01-23T18:33:00.221Z,27.47
2023-01-23T18:35:52.045Z,27.10
2023-01-23T18:38:37.564Z,24.67
2023-01-23T18:41:25.033Z,25.87
2023-01-23T18:44:15.044Z,25.83
2023-01-23T18:46:42.219Z,27.97
2023-01-23T18:49:14.947Z,24.07
2023-01-23T18:52:01.584Z,27.37
2023-01-23T18:55:17.680Z,25.40
2023-01-23T18:58:08.887Z,25.87
2023-01-23T19:01:07.600Z,26.23
2023-01-23T19:03:55.275Z,29.90
2023-01-23T19:06:24.799Z,26.57
2023-01-23T19:08:54.240Z,30.33
2023-01-23T19:12:00.897Z,28.77
2023-01-23T19:15:00.330Z,32.37
2023-01-23T19:18:04.490Z,27.23
2023-01-23T19:21:00.495Z,27.33
2023-01-23T19:23:47.200Z,28.43
2023-01-23T19:26:16.436Z,28.17
2023-01-23T19:28:43.599Z,24.07
2023-01-23T19:31:22.664Z,26.40
2023-01-23T19:34:04.419Z,26.53
2023-01-23T19:36:35.039Z,26.80
2023-01-23T19:39:04.377Z,26.63
2023-01-23T19:41:53.259Z,27.13
2023-01-23T19:44:24.023Z,27.90
2023-01-23T19:46:51.927Z,25.77
2023-01-23T19:49:19.036Z,31.37
2023-01-23T19:51:47.331Z,28.17
2023-01-23T19:54:15.781Z,28.90
2023-01-23T19:56:42.769Z,30.50
2023-01-23T19:59:09.727Z,27.67
2023-01-23T20:01:43.309Z,27.50
2023-01-23T20:04:20.768Z,27.80
2023-01-23T20:06:53.936Z,28.33
2023-01-23T20:09:21.316Z,29.53
2023-01-23T20:11:48.638Z,30.80
2023-01-23T20:14:15.896Z,28.23
2023-01-23T20:16:43.627Z,33.33
2023-01-23T20:19:16.794Z,28.47
2023-01-23T20:21:44.097Z,29.93
2023-01-23T20:24:11.355Z,29.07
2023-01-23T20:26:39.299Z,32.53
2023-01-23T20:29:08.399Z,36.17
2023-01-23T20:31:35.769Z,31.13
2023-01-23T20:34:02.858Z,31.10
2023-01-23T20:36:29.824Z,28.33
2023-01-23T20:38:57.122Z,30.93
2023-01-23T20:41:24.104Z,32.87
2023-01-23T20:43:50.934Z,28.20
2023-01-23T20:46:19.265Z,35.37
2023-01-23T20:48:46.558Z,30.00
2023-01-23T20:51:15.769Z,29.47
2023-01-23T20:53:43.451Z,30.73
2023-01-23T20:56:27.467Z,30.87
2023-01-23T20:59:14.695Z,30.70
2023-01-23T21:02:01.136Z,26.23
2023-01-23T21:04:31.805Z,29.80
2023-01-23T21:06:59.683Z,26.10
2023-01-23T21:09:27.330Z,27.87
2023-01-23T21:11:54.938Z,27.30
2023-01-23T21:14:23.343Z,27.60
2023-01-23T21:16:50.279Z,27.13
2023-01-23T21:19:17.133Z,24.93
2023-01-23T21:21:44.198Z,28.07
2023-01-23T21:24:11.305Z,23.93
2023-01-23T21:26:38.309Z,24.80
2023-01-23T21:29:08.048Z,24.73
2023-01-23T21:31:39.347Z,26.57
2023-01-23T21:34:10.188Z,23.67
2023-01-23T21:36:37.948Z,26.53
2023-01-23T21:39:08.595Z,24.50
2023-01-23T21:41:36.418Z,24.70
2023-01-23T21:44:03.194Z,25.20
2023-01-23T21:46:30.120Z,25.77
2023-01-23T21:48:56.985Z,24.37
2023-01-23T21:51:27.837Z,23.97
2023-01-23T21:53:55.038Z,25.67
2023-01-23T21:56:23.439Z,21.93
2023-01-23T21:58:50.545Z,23.00
2023-01-23T22:01:36.066Z,21.53
2023-01-23T22:04:11.130Z,21.53
2023-01-23T22:06:41.265Z,23.73
2023-01-23T22:09:09.670Z,23.70
2023-01-23T22:11:36.936Z,20.93
2023-01-23T22:14:04.603Z,24.73
2023-01-23T22:16:47.511Z,24.97
2023-01-23T22:19:18.864Z,25.77
2023-01-23T22:21:46.547Z,21.10
2023-01-23T22:24:14.446Z,25.97
2023-01-23T22:26:41.384Z,22.23
2023-01-23T22:29:08.781Z,21.20
2023-01-23T22:31:35.760Z,21.77
2023-01-23T22:34:02.952Z,20.87
2023-01-23T22:36:29.830Z,23.40
2023-01-23T22:38:56.927Z,23.53
2023-01-23T22:41:24.154Z,22.73
2023-01-23T22:43:55.707Z,23.67
2023-01-23T22:46:23.593Z,21.23
2023-01-23T22:48:51.350Z,23.27
2023-01-23T22:51:26.820Z,22.20
2023-01-23T22:53:56.381Z,21.87
2023-01-23T22:56:25.526Z,22.63
2023-01-23T22:58:54.342Z,23.10
2023-01-23T23:01:23.384Z,22.07
2023-01-23T23:03:51.673Z,22.37
2023-01-23T23:06:19.419Z,21.63
2023-01-23T23:08:48.145Z,22.23
2023-01-23T23:11:23.965Z,23.10
2023-01-23T23:13:51.255Z,22.93
2023-01-23T23:16:25.070Z,21.67
2023-01-23T23:18:54.853Z,21.57
2023-01-23T23:21:25.306Z,21.50
2023-01-23T23:23:57.124Z,21.53
2023-01-23T23:26:26.628Z,21.40
2023-01-23T23:28:54.633Z,22.80
2023-01-23T23:31:21.555Z,22.87
2023-01-23T23:33:48.475Z,23.07
2023-01-23T23:36:15.301Z,22.40
2023-01-23T23:38:42.133Z,24.97
2023-01-23T23:41:13.491Z,23.13
2023-01-23T23:43:41.122Z,22.33
2023-01-23T23:46:09.728Z,21.50
2023-01-23T23:48:38.038Z,24.47
2023-01-23T23:51:08.984Z,22.37
2023-01-23T23:53:36.603Z,26.37
2023-01-23T23:56:05.019Z,24.93
2023-01-23T23:58:32.538Z,23.73
